Time;durP1;ratioP1;P1;durP2;ratioP2;P2;SDS_P1;SDS_P2;PMS_P1;PMS_P2;Temp;Humidity;BMP_temperature;BMP_pressure;BME280_temperature;BME280_humidity;BME280_pressure;Samples;Min_cycle;Max_cycle;Signal;HPM_P1;HPM_P2
2021/10/04 00:01:58;;;;;;;2.92;2.03;;;12.40;99.90;;;;;;4932793;29;20071;-78
2021/10/04 00:04:23;;;;;;;3.03;1.65;;;12.40;99.90;;;;;;4933773;29;20024;-79
2021/10/04 00:06:49;;;;;;;2.65;1.50;;;12.40;99.90;;;;;;4933946;29;20027;-79
2021/10/04 00:09:15;;;;;;;3.22;1.60;;;12.40;99.90;;;;;;4932952;29;20396;-78
2021/10/04 00:11:40;;;;;;;1.70;1.55;;;12.40;99.90;;;;;;4932559;29;20082;-78
2021/10/04 00:14:28;;;;;;;1.90;1.70;;;12.40;99.90;;;;;;4934113;29;20204;-79
2021/10/04 00:17:02;;;;;;;2.08;1.65;;;12.40;99.90;;;;;;4917042;29;20066;-79
2021/10/04 00:19:27;;;;;;;2.25;1.30;;;12.40;99.90;;;;;;4916545;29;20043;-79
2021/10/04 00:21:53;;;;;;;1.63;1.42;;;12.40;99.90;;;;;;4932977;29;20035;-79
2021/10/04 00:24:18;;;;;;;2.30;1.67;;;12.30;99.90;;;;;;4933172;29;20059;-79
2021/10/04 00:26:44;;;;;;;1.67;1.40;;;12.30;99.90;;;;;;4933735;29;20020;-79
2021/10/04 00:29:10;;;;;;;4.30;1.88;;;12.30;99.90;;;;;;4936711;29;20388;-79
2021/10/04 00:31:36;;;;;;;1.90;1.30;;;12.30;99.90;;;;;;4936939;29;20059;-79
2021/10/04 00:34:02;;;;;;;3.50;1.70;;;12.30;99.90;;;;;;4935981;29;20024;-80
2021/10/04 00:36:28;;;;;;;4.07;1.65;;;12.30;99.90;;;;;;4937223;29;20020;-79
2021/10/04 00:38:54;;;;;;;2.63;1.60;;;12.30;99.90;;;;;;4936238;29;20393;-79
2021/10/04 00:41:21;;;;;;;1.52;1.42;;;12.30;99.90;;;;;;4936188;29;20032;-79
2021/10/04 00:43:46;;;;;;;2.08;1.65;;;12.30;99.90;;;;;;4936431;29;20024;-79
2021/10/04 00:46:12;;;;;;;7.25;2.17;;;12.30;99.90;;;;;;4937740;29;20111;-79
2021/10/04 00:48:38;;;;;;;4.82;1.92;;;12.30;99.90;;;;;;4935876;29;20059;-79
2021/10/04 00:51:03;;;;;;;2.58;1.75;;;12.30;99.90;;;;;;4936220;29;20036;-79
2021/10/04 00:53:29;;;;;;;1.92;1.52;;;12.30;99.90;;;;;;4937918;29;20024;-79
2021/10/04 00:55:55;;;;;;;3.88;1.83;;;12.40;99.90;;;;;;4935329;29;20047;-79
2021/10/04 00:58:21;;;;;;;2.45;1.63;;;12.30;99.90;;;;;;4937370;29;20472;-79
2021/10/04 01:00:46;;;;;;;3.38;1.42;;;12.40;99.90;;;;;;4936936;29;20643;-79
2021/10/04 01:03:15;;;;;;;1.88;1.25;;;12.40;99.90;;;;;;4937441;29;20027;-79
2021/10/04 01:05:41;;;;;;;3.17;1.73;;;12.30;99.90;;;;;;4935334;29;20024;-79
2021/10/04 01:08:07;;;;;;;6.55;1.73;;;12.40;99.90;;;;;;4935221;29;20071;-80
2021/10/04 01:10:32;;;;;;;8.18;2.33;;;12.30;99.90;;;;;;4936386;29;20036;-79
2021/10/04 01:12:58;;;;;;;4.00;1.67;;;12.30;99.90;;;;;;4935695;29;20024;-79
2021/10/04 01:15:24;;;;;;;2.95;2.10;;;12.30;99.90;;;;;;4935507;29;20385;-79
2021/10/04 01:17:50;;;;;;;1.90;1.38;;;12.30;99.90;;;;;;4936206;29;20070;-79
2021/10/04 01:20:22;;;;;;;5.53;1.80;;;12.40;99.90;;;;;;4936010;29;20031;-79
2021/10/04 01:22:48;;;;;;;1.98;1.33;;;12.30;99.90;;;;;;4935093;29;20059;-79
2021/10/04 01:25:15;;;;;;;2.25;1.65;;;12.30;99.90;;;;;;4935800;29;20063;-79
2021/10/04 01:27:41;;;;;;;2.72;1.45;;;12.30;99.90;;;;;;4935684;29;20028;-79
2021/10/04 01:30:08;;;;;;;3.88;1.63;;;12.30;99.90;;;;;;4933347;29;20035;-78
2021/10/04 01:32:34;;;;;;;4.28;1.55;;;12.30;99.90;;;;;;4935882;29;20122;-79
2021/10/04 01:35:00;;;;;;;2.60;1.45;;;12.30;99.90;;;;;;4936689;29;20535;-79
2021/10/04 01:37:26;;;;;;;3.92;1.40;;;12.30;99.90;;;;;;4935088;29;20487;-78
2021/10/04 01:39:52;;;;;;;2.40;1.40;;;12.30;99.90;;;;;;4935986;29;20032;-78
2021/10/04 01:42:19;;;;;;;1.75;1.00;;;12.30;99.90;;;;;;4935275;29;20024;-80
2021/10/04 01:44:45;;;;;;;3.47;1.73;;;12.30;99.90;;;;;;4935975;29;20038;-79
2021/10/04 01:47:10;;;;;;;2.90;1.63;;;12.30;99.90;;;;;;4934989;29;20106;-79
2021/10/04 01:49:36;;;;;;;1.50;1.40;;;12.30;99.90;;;;;;4935234;29;20048;-79
2021/10/04 01:52:02;;;;;;;2.47;1.33;;;12.30;99.90;;;;;;4934808;29;20028;-79
2021/10/04 01:54:28;;;;;;;1.95;1.48;;;12.30;99.90;;;;;;4934440;29;20027;-83
2021/10/04 01:56:53;;;;;;;2.17;1.23;;;12.30;99.90;;;;;;4933347;29;20094;-78
2021/10/04 01:59:19;;;;;;;1.65;1.23;;;12.30;99.90;;;;;;4934591;29;20564;-78
2021/10/04 02:01:45;;;;;;;1.77;1.40;;;12.30;99.90;;;;;;4935624;29;20389;-79
2021/10/04 02:04:12;;;;;;;2.40;1.25;;;12.20;99.90;;;;;;4934469;29;20106;-78
2021/10/04 02:06:37;;;;;;;3.10;1.70;;;12.20;99.90;;;;;;4936571;29;20050;-78
2021/10/04 02:09:03;;;;;;;3.20;1.50;;;12.20;99.90;;;;;;4934747;29;20476;-78
2021/10/04 02:11:28;;;;;;;3.38;1.58;;;12.20;99.90;;;;;;4936041;29;20421;-79
2021/10/04 02:13:54;;;;;;;2.15;1.30;;;12.20;99.90;;;;;;4935882;29;20024;-78
2021/10/04 02:16:20;;;;;;;1.40;1.30;;;12.20;99.90;;;;;;4935432;29;20653;-79
2021/10/04 02:18:46;;;;;;;3.28;1.20;;;12.20;99.90;;;;;;4934000;29;20035;-78
2021/10/04 02:21:12;;;;;;;2.10;1.55;;;12.30;99.90;;;;;;4934508;29;20079;-79
2021/10/04 02:23:37;;;;;;;3.88;1.45;;;12.30;99.90;;;;;;4935086;29;20027;-78
2021/10/04 02:26:03;;;;;;;3.75;1.48;;;12.20;99.90;;;;;;4933690;29;20039;-80
2021/10/04 02:28:29;;;;;;;3.58;1.88;;;12.20;99.90;;;;;;4936163;29;20035;-80
2021/10/04 02:30:56;;;;;;;2.38;1.35;;;12.20;99.90;;;;;;4933832;29;20576;-80
2021/10/04 02:33:21;;;;;;;1.95;1.35;;;12.20;99.90;;;;;;4934360;29;20154;-79
2021/10/04 02:35:47;;;;;;;1.85;1.27;;;12.20;99.90;;;;;;4935903;29;20106;-79
2021/10/04 02:38:13;;;;;;;2.95;1.50;;;12.20;99.90;;;;;;4934201;29;20030;-79
2021/10/04 02:40:39;;;;;;;1.83;1.50;;;12.20;99.90;;;;;;4932563;29;20039;-80
2021/10/04 02:43:05;;;;;;;2.83;1.55;;;12.20;99.90;;;;;;4934040;29;20461;-80
2021/10/04 02:45:31;;;;;;;3.53;1.45;;;12.20;99.90;;;;;;4934608;29;20023;-80
2021/10/04 02:48:01;;;;;;;1.98;1.13;;;12.10;99.90;;;;;;4932691;29;20039;-79
2021/10/04 02:50:28;;;;;;;2.05;1.38;;;12.10;99.90;;;;;;4931992;29;20044;-78
2021/10/04 02:52:54;;;;;;;1.98;1.40;;;12.10;99.90;;;;;;4934064;29;20099;-79
2021/10/04 02:55:20;;;;;;;1.88;1.02;;;12.10;99.90;;;;;;4933466;29;20031;-79
2021/10/04 02:57:46;;;;;;;2.25;1.42;;;12.10;99.90;;;;;;4934216;29;20079;-79
2021/10/04 03:00:15;;;;;;;2.60;1.20;;;12.10;99.90;;;;;;4933933;29;20023;-79
2021/10/04 03:02:41;;;;;;;1.33;1.10;;;12.10;99.90;;;;;;4934936;29;20024;-79
2021/10/04 03:05:07;;;;;;;1.60;1.20;;;12.10;99.90;;;;;;4933827;29;20035;-79
2021/10/04 03:07:33;;;;;;;1.58;1.10;;;12.10;99.90;;;;;;4933797;29;20392;-79
2021/10/04 03:09:59;;;;;;;2.30;1.17;;;12.00;99.90;;;;;;4933489;29;20127;-79
2021/10/04 03:12:24;;;;;;;1.55;1.13;;;12.10;99.90;;;;;;4934204;29;20024;-79
2021/10/04 03:14:50;;;;;;;2.42;1.40;;;12.10;99.90;;;;;;4934351;29;20034;-79
2021/10/04 03:17:16;;;;;;;3.13;1.35;;;12.10;99.90;;;;;;4933758;29;20027;-79
2021/10/04 03:19:43;;;;;;;2.28;1.35;;;12.10;99.90;;;;;;4933775;29;20039;-79
2021/10/04 03:22:09;;;;;;;3.13;1.30;;;12.10;99.90;;;;;;4934601;29;20075;-79
2021/10/04 03:24:34;;;;;;;1.70;1.38;;;12.10;99.90;;;;;;4933791;29;20032;-79
2021/10/04 03:27:00;;;;;;;1.48;1.20;;;12.10;99.90;;;;;;4934428;29;20038;-79
2021/10/04 03:29:28;;;;;;;3.47;1.55;;;12.10;99.90;;;;;;4933134;29;20047;-79
2021/10/04 03:31:53;;;;;;;4.20;1.70;;;12.10;99.90;;;;;;4933754;29;20047;-79
2021/10/04 03:34:19;;;;;;;4.93;1.50;;;12.10;99.90;;;;;;4933752;29;20388;-79
2021/10/04 03:36:45;;;;;;;2.63;1.10;;;12.10;99.90;;;;;;4932804;29;20122;-79
2021/10/04 03:39:12;;;;;;;1.67;1.20;;;12.10;99.90;;;;;;4932880;29;20055;-79
2021/10/04 03:41:38;;;;;;;1.90;1.40;;;12.10;99.90;;;;;;4933535;29;20031;-79
2021/10/04 03:44:04;;;;;;;1.42;0.85;;;12.10;99.90;;;;;;4932516;29;20023;-79
2021/10/04 03:46:30;;;;;;;1.98;1.35;;;12.10;99.90;;;;;;4934440;29;20038;-79
2021/10/04 03:48:55;;;;;;;3.58;1.50;;;12.10;99.90;;;;;;4932746;29;20130;-79
2021/10/04 03:51:22;;;;;;;2.58;1.15;;;12.10;99.90;;;;;;4933445;29;20542;-79
2021/10/04 03:53:48;;;;;;;1.77;1.00;;;12.10;99.90;;;;;;4933501;29;20078;-80
2021/10/04 03:56:13;;;;;;;2.88;1.10;;;12.10;99.90;;;;;;4933146;29;20078;-78
2021/10/04 03:58:40;;;;;;;2.70;1.30;;;12.10;99.90;;;;;;4932558;29;20485;-79
2021/10/04 04:01:06;;;;;;;3.38;1.50;;;12.10;99.90;;;;;;4934087;29;20020;-79
2021/10/04 04:03:31;;;;;;;1.77;1.20;;;12.20;99.90;;;;;;4932376;29;20043;-79
2021/10/04 04:05:57;;;;;;;1.67;1.15;;;12.10;99.90;;;;;;4932333;29;20031;-79
2021/10/04 04:08:22;;;;;;;3.78;1.13;;;12.10;99.90;;;;;;4933449;29;20082;-79
2021/10/04 04:10:48;;;;;;;2.10;1.50;;;12.10;99.90;;;;;;4932480;29;20118;-78
2021/10/04 04:13:14;;;;;;;1.23;0.90;;;12.10;99.90;;;;;;4932994;29;20028;-79
2021/10/04 04:15:40;;;;;;;3.33;1.15;;;12.10;99.90;;;;;;4934378;29;20046;-79
2021/10/04 04:18:05;;;;;;;7.43;1.80;;;12.10;99.90;;;;;;4932031;29;20031;-79
2021/10/04 04:20:31;;;;;;;3.13;1.13;;;12.10;99.90;;;;;;4934524;29;20420;-78
2021/10/04 04:22:57;;;;;;;2.53;1.45;;;12.10;99.90;;;;;;4932531;29;20028;-79
2021/10/04 04:25:22;;;;;;;1.58;1.35;;;12.10;99.90;;;;;;4932705;29;20032;-79
2021/10/04 04:27:49;;;;;;;4.75;1.58;;;12.10;99.90;;;;;;4932927;29;20027;-79
2021/10/04 04:30:15;;;;;;;1.60;1.20;;;12.10;99.90;;;;;;4932823;29;20032;-79
2021/10/04 04:32:42;;;;;;;1.73;1.15;;;12.10;99.90;;;;;;4932013;29;20071;-79
2021/10/04 04:35:08;;;;;;;1.85;1.17;;;12.10;99.90;;;;;;4932689;29;20104;-78
2021/10/04 04:37:38;;;;;;;1.33;1.20;;;12.10;99.90;;;;;;4933036;29;20024;-79
2021/10/04 04:40:06;;;;;;;4.13;1.42;;;12.10;99.90;;;;;;4932016;29;20099;-79
2021/10/04 04:42:31;;;;;;;2.90;1.15;;;12.10;99.90;;;;;;4932554;29;20075;-79
2021/10/04 04:44:57;;;;;;;1.38;1.13;;;12.10;99.90;;;;;;4933413;29;20032;-79
2021/10/04 04:47:23;;;;;;;1.33;1.17;;;12.10;99.90;;;;;;4932313;29;20095;-79
2021/10/04 04:49:48;;;;;;;3.17;1.30;;;12.20;99.90;;;;;;4916940;29;20036;-78
2021/10/04 04:52:14;;;;;;;3.47;1.35;;;12.10;99.90;;;;;;4932920;29;20035;-78
2021/10/04 04:54:40;;;;;;;3.67;1.23;;;12.10;99.90;;;;;;4932201;29;20068;-79
2021/10/04 04:57:06;;;;;;;4.15;1.38;;;12.10;99.90;;;;;;4932514;29;20020;-79
2021/10/04 04:59:32;;;;;;;2.85;1.10;;;12.10;99.90;;;;;;4934224;29;20388;-79
2021/10/04 05:01:57;;;;;;;4.75;1.42;;;12.10;99.90;;;;;;4933066;29;20032;-80
2021/10/04 05:04:23;;;;;;;4.32;1.35;;;12.10;99.90;;;;;;4932850;29;20094;-80
2021/10/04 05:06:49;;;;;;;1.70;1.33;;;12.10;99.90;;;;;;4932879;29;20032;-79
2021/10/04 05:09:15;;;;;;;1.65;1.20;;;12.10;99.90;;;;;;4931645;29;20047;-79
2021/10/04 05:11:41;;;;;;;2.38;1.20;;;12.10;99.90;;;;;;4932882;29;20107;-80
2021/10/04 05:14:07;;;;;;;2.80;1.20;;;12.10;99.90;;;;;;4935128;29;20080;-79
2021/10/04 05:16:32;;;;;;;1.77;1.23;;;12.10;99.90;;;;;;4936383;29;20100;-79
2021/10/04 05:18:58;;;;;;;7.15;1.60;;;12.10;99.90;;;;;;4935531;29;20028;-79
2021/10/04 05:21:24;;;;;;;1.45;1.10;;;12.10;99.90;;;;;;4936898;29;20030;-79
2021/10/04 05:23:49;;;;;;;1.92;1.48;;;12.10;99.90;;;;;;4936236;29;20071;-80
2021/10/04 05:26:15;;;;;;;1.40;1.23;;;12.10;99.90;;;;;;4937109;29;20039;-79
2021/10/04 05:28:41;;;;;;;2.22;1.25;;;12.10;99.90;;;;;;4935292;29;20067;-79
2021/10/04 05:31:06;;;;;;;1.65;1.30;;;12.10;99.90;;;;;;4935511;29;20111;-79
2021/10/04 05:33:32;;;;;;;3.40;1.50;;;12.10;99.90;;;;;;4935930;29;20034;-79
2021/10/04 05:35:58;;;;;;;1.80;1.38;;;12.10;99.90;;;;;;4934805;29;20028;-79
2021/10/04 05:38:23;;;;;;;3.17;1.70;;;12.10;99.90;;;;;;4933335;29;20130;-79
2021/10/04 05:40:53;;;;;;;1.95;1.60;;;12.10;99.90;;;;;;4932161;29;20024;-79
2021/10/04 05:43:18;;;;;;;1.85;1.55;;;12.00;99.90;;;;;;4930193;29;20066;-79
2021/10/04 05:45:44;;;;;;;3.03;1.40;;;12.10;99.90;;;;;;4930715;29;20052;-78
2021/10/04 05:48:09;;;;;;;2.13;1.20;;;12.10;99.90;;;;;;4931538;29;20031;-79
2021/10/04 05:50:35;;;;;;;2.60;1.38;;;12.00;99.90;;;;;;4931533;29;20051;-80
2021/10/04 05:53:00;;;;;;;4.95;1.92;;;12.10;99.90;;;;;;4932921;29;20075;-79
2021/10/04 05:55:26;;;;;;;3.80;1.25;;;12.00;99.90;;;;;;4935382;29;20080;-80
2021/10/04 05:57:52;;;;;;;2.17;1.42;;;12.10;99.90;;;;;;4935430;29;20027;-80
2021/10/04 06:00:17;;;;;;;2.10;1.30;;;12.00;99.90;;;;;;4935286;29;20104;-79
2021/10/04 06:02:43;;;;;;;2.95;1.20;;;12.00;99.90;;;;;;4930048;29;20016;-80
2021/10/04 06:05:09;;;;;;;2.65;1.92;;;12.10;99.90;;;;;;4932706;29;20034;-80
2021/10/04 06:07:36;;;;;;;2.65;1.10;;;12.00;99.90;;;;;;4931223;29;20035;-81
2021/10/04 06:10:07;;;;;;;8.25;1.30;;;12.00;99.90;;;;;;4950596;28;20038;-81
2021/10/04 06:12:33;;;;;;;2.45;1.02;;;12.00;99.90;;;;;;4934276;29;20046;-82
2021/10/04 06:15:00;;;;;;;3.63;1.42;;;12.10;99.90;;;;;;4933772;29;20477;-81
2021/10/04 06:17:27;;;;;;;2.25;1.15;;;12.10;99.90;;;;;;4931031;29;20031;-80
2021/10/04 06:19:54;;;;;;;2.10;1.25;;;12.10;99.90;;;;;;4935016;29;20469;-79
2021/10/04 06:22:20;;;;;;;3.20;1.45;;;12.10;99.90;;;;;;4933692;29;20039;-80
2021/10/04 06:24:45;;;;;;;1.75;1.20;;;12.10;99.90;;;;;;4940726;29;20023;-81
2021/10/04 06:27:11;;;;;;;3.42;1.20;;;12.10;99.90;;;;;;4934967;29;20023;-81
2021/10/04 06:29:37;;;;;;;1.98;1.20;;;12.10;99.90;;;;;;4934178;29;20118;-80
2021/10/04 06:32:04;;;;;;;2.25;1.13;;;12.10;99.90;;;;;;4932980;29;20039;-79
2021/10/04 06:34:30;;;;;;;1.67;1.27;;;12.10;99.90;;;;;;4933036;29;20047;-80
2021/10/04 06:36:56;;;;;;;1.73;1.23;;;12.10;99.90;;;;;;4933848;29;20024;-78
2021/10/04 06:39:22;;;;;;;2.17;1.50;;;12.10;99.90;;;;;;4933994;29;20030;-80
2021/10/04 06:41:47;;;;;;;2.00;1.17;;;12.10;99.90;;;;;;4933093;29;20036;-78
2021/10/04 06:44:13;;;;;;;1.90;1.30;;;12.20;99.90;;;;;;4932625;29;20240;-79
2021/10/04 06:46:38;;;;;;;2.30;1.52;;;12.20;99.90;;;;;;4931951;29;20039;-79
2021/10/04 06:49:05;;;;;;;2.78;1.30;;;12.20;99.90;;;;;;4931895;29;20118;-82
2021/10/04 06:51:33;;;;;;;2.20;1.00;;;12.20;99.90;;;;;;4932859;29;20043;-82
2021/10/04 06:53:59;;;;;;;3.40;1.50;;;12.20;99.90;;;;;;4931994;29;20042;-82
2021/10/04 06:56:25;;;;;;;3.47;1.30;;;12.20;99.90;;;;;;4934223;29;20106;-81
2021/10/04 06:58:51;;;;;;;7.80;1.45;;;12.30;99.90;;;;;;4933058;29;20051;-81
2021/10/04 07:01:17;;;;;;;4.32;1.38;;;12.30;99.90;;;;;;4936329;29;20027;-81
2021/10/04 07:03:43;;;;;;;2.22;1.55;;;12.30;99.90;;;;;;4933329;29;20075;-79
2021/10/04 07:06:09;;;;;;;1.52;1.10;;;12.30;99.90;;;;;;4930653;29;20066;-80
2021/10/04 07:08:35;;;;;;;2.08;1.48;;;12.40;99.90;;;;;;4930386;29;20142;-78
2021/10/04 07:11:01;;;;;;;1.95;1.30;;;12.40;99.90;;;;;;4928979;29;20050;-79
2021/10/04 07:13:26;;;;;;;3.53;1.50;;;12.40;99.90;;;;;;4931080;29;20127;-81
2021/10/04 07:15:52;;;;;;;2.28;1.17;;;12.40;99.90;;;;;;4930145;29;20773;-80
2021/10/04 07:18:18;;;;;;;3.33;1.42;;;12.40;99.90;;;;;;4930625;29;20111;-83
2021/10/04 07:20:43;;;;;;;3.15;1.60;;;12.40;99.90;;;;;;4930471;29;20035;-79
2021/10/04 07:23:09;;;;;;;3.13;1.73;;;12.40;99.90;;;;;;4929648;29;20028;-78
2021/10/04 07:25:35;;;;;;;2.55;1.42;;;12.40;99.90;;;;;;4932021;29;20520;-80
2021/10/04 07:28:02;;;;;;;2.58;1.10;;;12.40;99.90;;;;;;4927933;29;20020;-79
2021/10/04 07:30:28;;;;;;;1.98;1.52;;;12.30;99.90;;;;;;4930486;29;20589;-78
2021/10/04 07:32:55;;;;;;;4.15;1.95;;;12.30;99.90;;;;;;4932141;29;20511;-79
2021/10/04 07:35:21;;;;;;;2.15;1.20;;;12.30;99.90;;;;;;4931642;29;20032;-78
2021/10/04 07:37:47;;;;;;;1.75;1.65;;;12.30;99.90;;;;;;4934464;29;20435;-78
2021/10/04 07:40:13;;;;;;;5.35;1.95;;;12.30;99.90;;;;;;4933655;29;20056;-78
2021/10/04 07:42:39;;;;;;;6.47;1.40;;;12.40;99.90;;;;;;4930961;29;20469;-78
2021/10/04 07:45:06;;;;;;;1.35;1.23;;;12.40;99.90;;;;;;4933043;29;20020;-78
2021/10/04 07:47:31;;;;;;;2.63;1.30;;;12.40;99.90;;;;;;4932718;29;20027;-78
2021/10/04 07:49:57;;;;;;;1.95;1.42;;;12.40;99.90;;;;;;4930052;29;20039;-79
2021/10/04 07:52:22;;;;;;;4.00;1.50;;;12.40;99.90;;;;;;4932774;29;20178;-79
2021/10/04 07:54:48;;;;;;;3.03;1.45;;;12.40;99.90;;;;;;4930965;29;20058;-78
2021/10/04 07:57:15;;;;;;;2.45;1.60;;;12.40;99.90;;;;;;4931480;29;20114;-79
2021/10/04 07:59:41;;;;;;;2.53;1.23;;;12.40;99.90;;;;;;4933313;29;20036;-79
2021/10/04 08:02:10;;;;;;;3.22;1.73;;;12.40;99.90;;;;;;4945923;29;20401;-78
2021/10/04 08:04:37;;;;;;;1.92;1.52;;;12.30;99.90;;;;;;4951705;28;20031;-78
2021/10/04 08:07:04;;;;;;;4.10;1.30;;;12.30;99.90;;;;;;4937001;28;20102;-78
2021/10/04 08:09:30;;;;;;;3.47;1.45;;;12.30;99.90;;;;;;4933127;29;20039;-78
2021/10/04 08:11:56;;;;;;;2.78;1.40;;;12.30;99.90;;;;;;4932250;29;20034;-79
2021/10/04 08:14:22;;;;;;;1.67;1.35;;;12.20;99.90;;;;;;4932621;29;20421;-79
2021/10/04 08:16:47;;;;;;;2.13;1.38;;;12.20;99.90;;;;;;4931679;29;20099;-79
2021/10/04 08:19:13;;;;;;;3.83;1.52;;;12.30;99.90;;;;;;4931508;29;20198;-79
2021/10/04 08:21:39;;;;;;;3.30;1.30;;;12.30;99.90;;;;;;4932999;29;20023;-79
2021/10/04 08:24:05;;;;;;;5.05;1.50;;;12.30;99.90;;;;;;4932619;29;20030;-79
2021/10/04 08:26:32;;;;;;;3.40;1.40;;;12.30;99.90;;;;;;4933142;29;20027;-79
2021/10/04 08:28:58;;;;;;;2.40;1.60;;;12.30;99.90;;;;;;4931490;29;20040;-79
2021/10/04 08:31:29;;;;;;;2.60;1.63;;;12.30;99.90;;;;;;4932346;29;20544;-79
2021/10/04 08:33:57;;;;;;;1.63;1.30;;;12.30;99.90;;;;;;4932535;29;20075;-79
2021/10/04 08:36:23;;;;;;;2.55;1.38;;;12.30;99.90;;;;;;4932840;29;20055;-79
2021/10/04 08:38:49;;;;;;;8.88;2.10;;;12.40;99.90;;;;;;4930321;29;20043;-79
2021/10/04 08:41:18;;;;;;;3.20;1.40;;;12.40;99.90;;;;;;4932870;29;20024;-79
2021/10/04 08:43:47;;;;;;;3.45;1.70;;;12.40;99.90;;;;;;4931276;29;20064;-79
2021/10/04 08:46:12;;;;;;;3.83;1.95;;;12.40;99.90;;;;;;4932065;29;20023;-79
2021/10/04 08:48:38;;;;;;;2.58;1.50;;;12.50;99.90;;;;;;4935221;29;20499;-79
2021/10/04 08:51:04;;;;;;;3.00;1.65;;;12.50;99.90;;;;;;4934943;29;20031;-79
2021/10/04 08:53:30;;;;;;;5.22;1.63;;;12.50;99.90;;;;;;4935422;29;20024;-81
2021/10/04 08:55:55;;;;;;;8.63;2.15;;;12.50;99.90;;;;;;4934599;29;20070;-79
2021/10/04 08:58:21;;;;;;;5.25;2.15;;;12.60;99.90;;;;;;4936650;29;20024;-79
2021/10/04 09:00:46;;;;;;;4.70;1.60;;;12.60;99.90;;;;;;4938243;29;20027;-78
2021/10/04 09:03:13;;;;;;;4.35;2.15;;;12.60;99.90;;;;;;4955244;28;20024;-78
2021/10/04 09:05:43;;;;;;;2.58;1.40;;;12.70;99.90;;;;;;4946673;29;20067;-79
2021/10/04 09:08:16;;;;;;;4.32;1.63;;;12.70;99.90;;;;;;4935070;29;20492;-78
2021/10/04 09:10:44;;;;;;;4.60;1.70;;;12.70;99.90;;;;;;4936112;29;20032;-80
2021/10/04 09:13:12;;;;;;;8.77;1.80;;;12.70;99.90;;;;;;4935270;29;20023;-79
2021/10/04 09:15:43;;;;;;;2.42;1.52;;;12.70;99.90;;;;;;4933547;29;20030;-79
2021/10/04 09:18:15;;;;;;;1.88;1.33;;;12.80;99.90;;;;;;4935715;29;20027;-79
2021/10/04 09:21:02;;;;;;;2.70;1.58;;;12.90;99.90;;;;;;4935820;29;20032;-79
2021/10/04 09:23:48;;;;;;;7.05;2.10;;;12.90;99.90;;;;;;4936048;29;20105;-80
2021/10/04 09:26:25;;;;;;;3.38;1.77;;;12.90;99.90;;;;;;4935976;29;20488;-79
2021/10/04 09:29:07;;;;;;;4.10;1.88;;;12.90;99.90;;;;;;4934850;29;20046;-80
2021/10/04 09:31:42;;;;;;;4.60;2.03;;;13.00;99.90;;;;;;4937090;29;20051;-80
2021/10/04 09:34:18;;;;;;;5.95;2.05;;;13.00;99.90;;;;;;4933704;29;20024;-79
2021/10/04 09:36:52;;;;;;;4.25;1.80;;;13.10;99.90;;;;;;4935039;29;20030;-77
2021/10/04 09:39:22;;;;;;;4.18;1.75;;;13.10;99.90;;;;;;4933549;29;20035;-77
2021/10/04 09:42:08;;;;;;;4.93;1.58;;;13.10;99.90;;;;;;4933843;29;20059;-78
2021/10/04 09:44:56;;;;;;;4.35;2.00;;;13.20;99.90;;;;;;4934560;29;20175;-78
2021/10/04 09:47:29;;;;;;;3.70;1.60;;;13.20;99.90;;;;;;4935114;29;20024;-80
2021/10/04 09:50:05;;;;;;;3.40;1.63;;;13.30;99.90;;;;;;4932675;29;20051;-77
2021/10/04 09:52:45;;;;;;;4.45;1.60;;;13.30;99.90;;;;;;4932521;29;20031;-77
2021/10/04 09:55:36;;;;;;;4.80;1.77;;;13.40;99.90;;;;;;4935090;29;20063;-82
2021/10/04 09:58:17;;;;;;;3.83;2.17;;;13.50;99.90;;;;;;4934786;29;20026;-79
2021/10/04 10:00:51;;;;;;;2.88;1.50;;;13.50;99.90;;;;;;4934354;29;20024;-79
2021/10/04 10:03:18;;;;;;;6.38;1.70;;;13.50;99.90;;;;;;4934592;29;20042;-80
2021/10/04 10:05:50;;;;;;;5.47;1.85;;;13.60;99.90;;;;;;4935331;29;20015;-78
2021/10/04 10:08:16;;;;;;;3.78;1.70;;;13.60;99.90;;;;;;4936074;29;20527;-78
2021/10/04 10:10:44;;;;;;;4.65;1.55;;;13.70;99.90;;;;;;4933593;29;20071;-79
2021/10/04 10:13:14;;;;;;;5.50;1.77;;;13.80;99.90;;;;;;4934466;29;20103;-74
2021/10/04 10:15:42;;;;;;;5.55;2.25;;;13.80;99.90;;;;;;4936045;29;20511;-77
2021/10/04 10:18:11;;;;;;;5.05;1.92;;;13.80;99.90;;;;;;4934980;29;20079;-77
2021/10/04 10:20:38;;;;;;;3.53;1.25;;;13.80;99.90;;;;;;4935309;29;20035;-80
2021/10/04 10:23:04;;;;;;;5.45;1.63;;;13.90;99.90;;;;;;4933688;29;20055;-81
2021/10/04 10:25:42;;;;;;;5.57;1.85;;;14.00;99.90;;;;;;4933382;29;20059;-79
2021/10/04 10:28:28;;;;;;;4.95;2.13;;;14.00;99.90;;;;;;4933195;29;20040;-81
2021/10/04 10:30:54;;;;;;;7.40;1.60;;;14.10;99.90;;;;;;4924705;29;20420;-77
2021/10/04 10:33:50;;;;;;;3.05;1.30;;;14.10;99.90;;;;;;4936013;29;20028;-76
2021/10/04 10:36:56;;;;;;;4.60;1.40;;;14.20;99.90;;;;;;4926677;29;20552;-76
2021/10/04 10:39:53;;;;;;;3.25;1.50;;;14.20;99.90;;;;;;4934740;29;20012;-79
2021/10/04 10:42:26;;;;;;;4.72;1.40;;;14.20;99.90;;;;;;4930949;29;20472;-78
2021/10/04 10:44:57;;;;;;;10.27;1.55;;;14.20;99.90;;;;;;4934282;29;20042;-78
2021/10/04 10:47:35;;;;;;;4.15;1.73;;;14.30;99.90;;;;;;4931897;29;20040;-77
2021/10/04 10:50:33;;;;;;;2.75;1.30;;;14.30;99.90;;;;;;4932979;29;20043;-80
2021/10/04 10:52:59;;;;;;;4.70;1.30;;;14.30;99.90;;;;;;4931911;29;20043;-83
2021/10/04 10:55:24;;;;;;;4.25;1.38;;;14.40;99.90;;;;;;4933855;29;20027;-83
2021/10/04 10:57:54;;;;;;;2.90;1.30;;;14.40;99.90;;;;;;4931550;29;20476;-80
2021/10/04 11:00:26;;;;;;;2.90;1.20;;;14.40;99.90;;;;;;4932907;29;20032;-78
2021/10/04 11:03:16;;;;;;;4.10;1.20;;;14.50;99.90;;;;;;4929444;29;20016;-81
2021/10/04 11:05:42;;;;;;;2.65;1.10;;;14.50;99.90;;;;;;4914422;29;20377;-82
2021/10/04 11:08:23;;;;;;;5.32;1.67;;;14.60;99.90;;;;;;4929771;29;20028;-80
2021/10/04 11:10:51;;;;;;;7.38;1.60;;;14.60;99.90;;;;;;4933579;29;20035;-83
2021/10/04 11:13:35;;;;;;;4.50;1.27;;;14.70;99.90;;;;;;4930607;29;20031;-79
2021/10/04 11:16:04;;;;;;;4.75;1.45;;;14.80;99.90;;;;;;4933791;29;20032;-78
2021/10/04 11:18:45;;;;;;;2.63;1.20;;;14.80;99.90;;;;;;4934971;29;20034;-77
2021/10/04 11:21:14;;;;;;;4.47;1.63;;;14.80;99.90;;;;;;4933798;29;20035;-78
2021/10/04 11:23:43;;;;;;;3.45;1.33;;;14.90;99.90;;;;;;4933033;29;20043;-80
2021/10/04 11:26:12;;;;;;;3.47;1.10;;;14.90;99.90;;;;;;4933645;29;20030;-78
2021/10/04 11:28:44;;;;;;;3.85;1.63;;;15.00;99.90;;;;;;4932958;29;20023;-78
2021/10/04 11:31:13;;;;;;;2.35;1.23;;;15.10;99.90;;;;;;4930265;29;20074;-78
2021/10/04 11:33:54;;;;;;;5.03;1.65;;;15.30;99.90;;;;;;4911588;29;20481;-78
2021/10/04 11:36:22;;;;;;;3.22;1.27;;;15.40;99.90;;;;;;4912396;29;20020;-78
2021/10/04 11:38:54;;;;;;;4.60;1.88;;;15.40;99.90;;;;;;4912062;29;20028;-80
2021/10/04 11:41:24;;;;;;;;;;;15.40;99.90;;;;;;4943630;28;20170;-76
2021/10/04 11:43:53;;;;;;;4.65;1.90;;;15.30;99.90;;;;;;4931658;29;19910;-76
2021/10/04 11:46:24;;;;;;;5.40;1.80;;;15.20;99.90;;;;;;4929649;29;20019;-76
2021/10/04 11:49:04;;;;;;;5.95;1.92;;;15.20;99.90;;;;;;4929393;29;20486;-76
2021/10/04 11:51:33;;;;;;;5.22;1.70;;;15.20;99.90;;;;;;4928777;29;20066;-76
2021/10/04 11:53:59;;;;;;;5.05;1.67;;;15.20;99.90;;;;;;4929953;29;20053;-77
2021/10/04 11:56:25;;;;;;;3.95;1.60;;;15.20;99.90;;;;;;4929149;29;20031;-77
2021/10/04 11:58:57;;;;;;;5.28;1.73;;;15.30;99.90;;;;;;4929380;29;20035;-77
2021/10/04 12:01:38;;;;;;;4.68;1.90;;;15.30;99.90;;;;;;4929416;29;20070;-77
2021/10/04 12:04:03;;;;;;;5.75;1.63;;;15.30;99.90;;;;;;4928253;29;20123;-77
2021/10/04 12:06:31;;;;;;;4.20;1.42;;;15.30;99.90;;;;;;4929808;29;20114;-77
2021/10/04 12:08:58;;;;;;;5.82;1.88;;;15.40;99.90;;;;;;4929065;29;20078;-76
2021/10/04 12:11:24;;;;;;;4.63;1.60;;;15.30;99.90;;;;;;4929798;29;20031;-77
2021/10/04 12:13:50;;;;;;;3.83;1.40;;;15.30;99.90;;;;;;4931194;29;20734;-76
2021/10/04 12:16:18;;;;;;;5.50;1.80;;;15.40;99.90;;;;;;4928356;29;20031;-76
2021/10/04 12:18:48;;;;;;;5.28;2.00;;;15.50;99.90;;;;;;4929705;29;20027;-76
2021/10/04 12:21:37;;;;;;;5.32;1.60;;;15.50;99.90;;;;;;4930545;29;20146;-76
2021/10/04 12:24:11;;;;;;;6.30;1.85;;;15.60;99.90;;;;;;4932849;29;20031;-75
2021/10/04 12:26:46;;;;;;;6.53;1.95;;;15.60;99.90;;;;;;4932479;29;20488;-76
2021/10/04 12:29:12;;;;;;;4.00;1.60;;;15.70;99.90;;;;;;4932730;29;20062;-75
2021/10/04 12:31:38;;;;;;;6.35;1.77;;;15.80;99.90;;;;;;4933141;29;20573;-76
2021/10/04 12:34:27;;;;;;;5.55;1.75;;;16.00;99.90;;;;;;4934631;29;20111;-76
2021/10/04 12:36:55;;;;;;;4.40;1.55;;;16.00;99.90;;;;;;4933515;29;20039;-76
2021/10/04 12:39:20;;;;;;;3.63;1.77;;;16.00;99.90;;;;;;4932768;29;20035;-76
2021/10/04 12:41:56;;;;;;;5.88;2.20;;;15.90;99.90;;;;;;4933661;29;20035;-76
2021/10/04 12:44:22;;;;;;;7.90;2.05;;;15.90;99.90;;;;;;4934427;29;20468;-76
2021/10/04 12:47:09;;;;;;;4.30;1.50;;;15.90;99.90;;;;;;4932697;29;20038;-76
2021/10/04 12:49:36;;;;;;;4.28;2.17;;;15.90;99.90;;;;;;4933148;29;20082;-77
2021/10/04 12:52:04;;;;;;;5.65;1.77;;;15.90;99.90;;;;;;4932192;29;20024;-76
2021/10/04 12:54:35;;;;;;;5.72;1.50;;;15.90;99.90;;;;;;4933231;29;20484;-76